Time;durP1;ratioP1;P1;durP2;ratioP2;P2;SDS_P1;SDS_P2;PMS_P1;PMS_P2;Temp;Humidity;BMP_temperature;BMP_pressure;BME280_temperature;BME280_humidity;BME280_pressure;Samples;Min_cycle;Max_cycle;Signal;HPM_P1;HPM_P2
2024/01/20 00:02:06;;;;;;;14.38;5.55;;;0.50;99.90;;;;;;4999414;28;20034;-83
2024/01/20 00:04:32;;;;;;;12.65;6.40;;;0.50;99.90;;;;;;5012444;28;20076;-83
2024/01/20 00:06:58;;;;;;;2.65;1.88;;;0.50;99.90;;;;;;5016611;28;20034;-83
2024/01/20 00:09:24;;;;;;;3.10;2.75;;;0.70;99.90;;;;;;5017424;28;20384;-82
2024/01/20 00:11:49;;;;;;;10.25;4.03;;;0.60;99.90;;;;;;5027093;28;20113;-82
2024/01/20 00:14:15;;;;;;;24.58;8.15;;;0.60;99.90;;;;;;5014534;28;20037;-83
2024/01/20 00:16:41;;;;;;;13.07;4.93;;;0.70;99.90;;;;;;5007751;28;20093;-83
2024/01/20 00:19:07;;;;;;;12.63;5.85;;;0.60;99.90;;;;;;5017200;28;20457;-82
2024/01/20 00:21:33;;;;;;;8.73;6.32;;;0.50;99.90;;;;;;5006209;28;20026;-83
2024/01/20 00:23:59;;;;;;;14.35;5.65;;;0.50;99.90;;;;;;5009589;28;20028;-83
2024/01/20 00:26:25;;;;;;;3.63;2.65;;;0.50;99.90;;;;;;5010251;28;20033;-83
2024/01/20 00:28:50;;;;;;;9.05;6.10;;;0.50;99.90;;;;;;5007042;28;20026;-83
2024/01/20 00:31:17;;;;;;;4.28;3.63;;;0.50;99.90;;;;;;5011749;28;20038;-83
2024/01/20 00:33:43;;;;;;;22.02;6.78;;;0.40;99.90;;;;;;4999563;28;20026;-83
2024/01/20 00:36:09;;;;;;;13.27;7.03;;;0.40;99.90;;;;;;5004108;28;20034;-83
2024/01/20 00:38:38;;;;;;;24.85;8.88;;;0.40;99.90;;;;;;5015900;28;20060;-82
2024/01/20 00:41:05;;;;;;;12.90;4.80;;;0.30;99.90;;;;;;5018503;28;20038;-83
2024/01/20 00:43:32;;;;;;;7.30;4.05;;;0.60;99.90;;;;;;5016317;28;20034;-83
2024/01/20 00:45:58;;;;;;;24.55;7.07;;;0.70;99.90;;;;;;5013281;28;20033;-83
2024/01/20 00:48:24;;;;;;;14.23;6.80;;;0.70;99.90;;;;;;5015144;28;20405;-84
2024/01/20 00:50:51;;;;;;;26.23;7.38;;;0.70;99.90;;;;;;5014735;28;20034;-83
2024/01/20 00:53:17;;;;;;;11.88;5.10;;;0.70;99.90;;;;;;5014731;28;20045;-82
2024/01/20 00:55:43;;;;;;;3.63;2.88;;;0.50;99.90;;;;;;5001194;28;20073;-83
2024/01/20 00:58:09;;;;;;;20.48;5.40;;;0.40;99.90;;;;;;5001949;28;20030;-83
2024/01/20 01:00:36;;;;;;;3.28;1.52;;;0.60;99.90;;;;;;4998273;28;20026;-83
2024/01/20 01:03:03;;;;;;;20.67;5.63;;;0.60;99.90;;;;;;4996516;28;20038;-82
2024/01/20 01:05:29;;;;;;;57.00;11.15;;;0.40;99.90;;;;;;5015569;28;20102;-82
2024/01/20 01:07:56;;;;;;;28.42;5.93;;;0.40;99.90;;;;;;5015238;28;20073;-83
2024/01/20 01:10:22;;;;;;;9.00;4.28;;;0.40;99.90;;;;;;5034269;28;20029;-83
2024/01/20 01:12:49;;;;;;;13.20;6.20;;;0.60;99.90;;;;;;5027944;28;20036;-82
2024/01/20 01:15:15;;;;;;;27.75;9.13;;;0.70;99.90;;;;;;5011695;28;20034;-82
2024/01/20 01:17:42;;;;;;;8.00;4.32;;;0.40;99.90;;;;;;5009782;28;20037;-82
2024/01/20 01:20:11;;;;;;;12.40;5.53;;;0.60;99.90;;;;;;5004061;28;20026;-83
2024/01/20 01:22:37;;;;;;;12.23;4.03;;;0.50;99.90;;;;;;5008620;28;20033;-83
2024/01/20 01:25:03;;;;;;;17.95;6.07;;;0.50;99.90;;;;;;5005334;28;20022;-82
2024/01/20 01:27:29;;;;;;;10.40;5.70;;;0.50;99.90;;;;;;4997005;28;20027;-83
2024/01/20 01:29:55;;;;;;;5.28;3.80;;;0.50;99.90;;;;;;5006999;28;20024;-83
2024/01/20 01:32:21;;;;;;;33.97;13.07;;;0.50;99.90;;;;;;5014774;28;20127;-83
2024/01/20 01:34:47;;;;;;;7.22;5.35;;;0.40;99.90;;;;;;5006118;28;20011;-82
2024/01/20 01:37:13;;;;;;;16.67;8.00;;;0.40;99.90;;;;;;4997378;28;20076;-83
2024/01/20 01:39:38;;;;;;;2.40;2.10;;;0.30;99.90;;;;;;5013909;28;20022;-83
2024/01/20 01:42:04;;;;;;;15.60;5.88;;;0.20;99.90;;;;;;5013603;28;20037;-79
2024/01/20 01:44:30;;;;;;;26.17;8.95;;;0.30;99.90;;;;;;5015245;28;20078;-82
2024/01/20 01:46:56;;;;;;;12.07;4.53;;;0.30;99.90;;;;;;5014934;28;20048;-82
2024/01/20 01:49:22;;;;;;;10.85;3.08;;;0.40;99.90;;;;;;5013237;28;20068;-80
2024/01/20 01:51:50;;;;;;;15.02;5.90;;;0.60;99.90;;;;;;4997963;28;20042;-83
2024/01/20 01:54:17;;;;;;;14.73;6.97;;;0.80;99.90;;;;;;5002679;28;20034;-83
2024/01/20 01:56:45;;;;;;;23.88;9.38;;;0.60;99.90;;;;;;5004194;28;20038;-83
2024/01/20 01:59:12;;;;;;;12.00;4.30;;;0.40;99.90;;;;;;5007744;28;20030;-83
2024/01/20 02:01:39;;;;;;;6.85;4.00;;;0.30;99.90;;;;;;4996076;28;20018;-81
2024/01/20 02:04:05;;;;;;;12.68;5.95;;;0.40;99.90;;;;;;4997063;28;20042;-82
2024/01/20 02:06:31;;;;;;;18.15;7.28;;;0.30;99.90;;;;;;5010173;28;20036;-82
2024/01/20 02:08:58;;;;;;;26.75;9.55;;;0.20;99.90;;;;;;5013107;28;20069;-83
2024/01/20 02:11:25;;;;;;;25.63;9.35;;;0.30;99.90;;;;;;5008872;28;20030;-82
2024/01/20 02:13:51;;;;;;;25.58;12.93;;;0.30;99.90;;;;;;5010110;28;20052;-84
2024/01/20 02:16:17;;;;;;;18.90;6.78;;;0.30;99.90;;;;;;5010687;28;20018;-83
2024/01/20 02:18:43;;;;;;;16.15;5.95;;;0.40;99.90;;;;;;5006734;28;20018;-84
2024/01/20 02:21:08;;;;;;;38.40;13.23;;;0.40;99.90;;;;;;5011109;28;20483;-84
2024/01/20 02:23:38;;;;;;;20.55;8.80;;;0.40;99.90;;;;;;5001399;28;20058;-83
2024/01/20 02:26:05;;;;;;;11.15;6.95;;;0.40;99.90;;;;;;5000125;28;20048;-83
2024/01/20 02:28:31;;;;;;;19.15;5.88;;;0.40;99.90;;;;;;5012942;28;20031;-82
2024/01/20 02:30:57;;;;;;;8.73;2.17;;;0.40;99.90;;;;;;4998406;28;20042;-83
2024/01/20 02:33:23;;;;;;;14.95;4.80;;;0.50;99.90;;;;;;4995518;28;20065;-81
2024/01/20 02:35:50;;;;;;;17.42;8.75;;;0.40;99.90;;;;;;4994245;28;20030;-83
2024/01/20 02:38:15;;;;;;;2.28;2.08;;;0.50;99.90;;;;;;5019192;28;20109;-83
2024/01/20 02:40:41;;;;;;;25.60;6.60;;;0.40;99.90;;;;;;5010373;28;20034;-83
2024/01/20 02:43:07;;;;;;;17.00;7.35;;;0.40;99.90;;;;;;5006906;28;20029;-82
2024/01/20 02:45:33;;;;;;;4.25;3.72;;;0.30;99.90;;;;;;4993854;28;20101;-83
2024/01/20 02:47:59;;;;;;;13.85;4.40;;;0.40;99.90;;;;;;5012280;28;20478;-84
2024/01/20 02:50:24;;;;;;;23.40;9.60;;;0.40;99.90;;;;;;5013798;28;20066;-83
2024/01/20 02:52:52;;;;;;;17.90;3.83;;;0.40;99.90;;;;;;5011401;28;20033;-83
2024/01/20 02:55:19;;;;;;;21.42;9.20;;;0.50;99.90;;;;;;5004184;28;20026;-83
2024/01/20 02:57:44;;;;;;;4.05;3.53;;;0.40;99.90;;;;;;5004083;28;20030;-81
2024/01/20 03:00:11;;;;;;;26.67;10.52;;;0.20;99.90;;;;;;5013567;28;20028;-83
2024/01/20 03:02:36;;;;;;;31.90;10.73;;;0.20;99.90;;;;;;5009665;28;20034;-83
2024/01/20 03:05:03;;;;;;;23.52;9.68;;;0.20;99.90;;;;;;5012116;28;20030;-83
2024/01/20 03:07:29;;;;;;;27.90;7.70;;;0.20;99.90;;;;;;5008357;28;20045;-82
2024/01/20 03:09:55;;;;;;;8.98;4.60;;;0.20;99.90;;;;;;5008956;28;20053;-83
2024/01/20 03:12:21;;;;;;;13.60;2.70;;;0.20;99.90;;;;;;5006622;28;20121;-83
2024/01/20 03:14:46;;;;;;;11.52;3.35;;;0.30;99.90;;;;;;5008538;28;20049;-84
2024/01/20 03:17:12;;;;;;;17.17;6.53;;;0.30;99.90;;;;;;5017758;28;20080;-83
2024/01/20 03:19:38;;;;;;;24.15;9.55;;;0.30;99.90;;;;;;5014525;28;20054;-82
2024/01/20 03:22:04;;;;;;;22.13;8.05;;;0.30;99.90;;;;;;5015050;28;20048;-82
2024/01/20 03:24:30;;;;;;;19.55;8.23;;;0.30;99.90;;;;;;5011970;28;20018;-83
2024/01/20 03:26:56;;;;;;;5.63;2.05;;;0.30;99.90;;;;;;5011231;28;20079;-82
2024/01/20 03:29:22;;;;;;;27.45;12.57;;;0.40;99.90;;;;;;5016467;28;20018;-83
2024/01/20 03:31:48;;;;;;;10.32;5.93;;;0.30;99.90;;;;;;5009934;28;20364;-83
2024/01/20 03:34:14;;;;;;;29.55;8.45;;;0.40;99.90;;;;;;5015705;28;20029;-81
2024/01/20 03:36:41;;;;;;;12.40;5.22;;;0.30;99.90;;;;;;5007223;28;20077;-83
2024/01/20 03:39:07;;;;;;;15.35;7.72;;;0.30;99.90;;;;;;5002725;28;20053;-83
2024/01/20 03:41:32;;;;;;;3.67;2.70;;;0.20;99.90;;;;;;5014848;28;20423;-82
2024/01/20 03:43:58;;;;;;;29.60;5.90;;;0.20;99.90;;;;;;4999325;28;20391;-83
2024/01/20 03:46:24;;;;;;;21.75;8.80;;;0.20;99.90;;;;;;4998811;28;20440;-82
2024/01/20 03:48:50;;;;;;;8.02;4.65;;;0.30;99.90;;;;;;5014072;28;20137;-83
2024/01/20 03:51:16;;;;;;;7.97;3.50;;;0.30;99.90;;;;;;5017047;28;20490;-83
2024/01/20 03:53:41;;;;;;;9.73;5.47;;;0.30;99.90;;;;;;5015011;28;20460;-82
2024/01/20 03:56:07;;;;;;;2.10;1.65;;;0.40;99.90;;;;;;5011868;28;20025;-82
2024/01/20 03:58:33;;;;;;;5.28;3.65;;;0.30;99.90;;;;;;5009873;28;20494;-83
2024/01/20 04:00:59;;;;;;;4.75;3.92;;;0.30;99.90;;;;;;5030196;28;20490;-82
2024/01/20 04:03:24;;;;;;;29.77;13.25;;;0.30;99.90;;;;;;5021684;28;20022;-84
2024/01/20 04:05:50;;;;;;;15.48;4.95;;;0.30;99.90;;;;;;5004392;28;20479;-83
2024/01/20 04:08:16;;;;;;;3.80;2.08;;;0.20;99.90;;;;;;5003329;28;20023;-83
2024/01/20 04:10:42;;;;;;;9.90;5.57;;;0.20;99.90;;;;;;5001324;28;20031;-83
2024/01/20 04:13:08;;;;;;;6.75;4.57;;;0.20;99.90;;;;;;5001290;28;20022;-83
2024/01/20 04:15:35;;;;;;;7.20;4.97;;;0.20;99.90;;;;;;5010483;28;20092;-83
2024/01/20 04:18:01;;;;;;;35.97;11.13;;;0.20;99.90;;;;;;5019053;28;20113;-82
2024/01/20 04:20:27;;;;;;;30.52;12.07;;;0.30;99.90;;;;;;5017942;28;20045;-83
2024/01/20 04:22:52;;;;;;;25.15;8.55;;;0.40;99.90;;;;;;5013229;28;20510;-83
2024/01/20 04:25:19;;;;;;;36.90;12.93;;;0.40;99.90;;;;;;5016227;28;20030;-84
2024/01/20 04:27:45;;;;;;;33.53;11.82;;;0.10;99.90;;;;;;5012754;28;20070;-83
2024/01/20 04:30:13;;;;;;;26.42;8.63;;;0.20;99.90;;;;;;5017310;28;20394;-83
2024/01/20 04:32:38;;;;;;;12.50;3.75;;;0.10;99.90;;;;;;5007570;28;20471;-83
2024/01/20 04:35:05;;;;;;;26.25;10.75;;;0.30;99.90;;;;;;5007731;28;20083;-82
2024/01/20 04:37:31;;;;;;;24.02;7.68;;;0.10;99.90;;;;;;5009359;28;20030;-82
2024/01/20 04:39:58;;;;;;;43.03;9.93;;;0.00;99.90;;;;;;5005418;28;20018;-81
2024/01/20 04:42:24;;;;;;;14.93;7.97;;;0.10;99.90;;;;;;5001194;28;20026;-83
2024/01/20 04:44:49;;;;;;;16.17;6.25;;;0.20;99.90;;;;;;5001917;28;20031;-82
2024/01/20 04:47:15;;;;;;;6.75;3.50;;;0.20;99.90;;;;;;4999161;28;20025;-82
2024/01/20 04:49:41;;;;;;;7.28;4.53;;;0.20;99.90;;;;;;5007365;28;20544;-83
2024/01/20 04:52:07;;;;;;;15.80;6.05;;;0.30;99.90;;;;;;5014709;28;20065;-83
2024/01/20 04:54:33;;;;;;;5.10;3.00;;;0.20;99.90;;;;;;5015953;28;20529;-83
2024/01/20 04:56:59;;;;;;;16.13;7.63;;;0.10;99.90;;;;;;5006555;28;20117;-83
2024/01/20 04:59:25;;;;;;;2.92;2.55;;;0.10;99.90;;;;;;5009264;28;20097;-83
2024/01/20 05:01:52;;;;;;;4.43;3.67;;;0.20;99.90;;;;;;5010077;28;20419;-79
2024/01/20 05:04:18;;;;;;;14.57;4.47;;;0.20;99.90;;;;;;5003968;28;20467;-79
2024/01/20 05:06:45;;;;;;;20.13;7.97;;;0.30;99.90;;;;;;5000573;28;20033;-80
2024/01/20 05:09:15;;;;;;;15.20;7.93;;;0.20;99.90;;;;;;5000207;28;20038;-81
2024/01/20 05:11:41;;;;;;;13.15;4.30;;;0.20;99.90;;;;;;4998856;28;20034;-83
2024/01/20 05:14:08;;;;;;;19.13;6.85;;;0.30;99.90;;;;;;4995911;28;20156;-80
2024/01/20 05:16:34;;;;;;;18.88;8.18;;;0.30;99.90;;;;;;5004314;28;20014;-82
2024/01/20 05:19:00;;;;;;;18.30;6.53;;;0.30;99.90;;;;;;5015520;28;20037;-81
2024/01/20 05:21:26;;;;;;;4.10;1.02;;;0.40;99.90;;;;;;5012710;28;20025;-82
2024/01/20 05:23:51;;;;;;;8.48;4.13;;;0.50;99.90;;;;;;5012758;28;20430;-82
2024/01/20 05:26:17;;;;;;;24.08;8.18;;;0.50;99.90;;;;;;5011806;28;20034;-82
2024/01/20 05:28:43;;;;;;;3.00;1.95;;;0.30;99.90;;;;;;5011380;28;20383;-83
2024/01/20 05:31:10;;;;;;;8.95;4.28;;;0.30;99.90;;;;;;5017738;28;20485;-83
2024/01/20 05:33:36;;;;;;;15.02;6.10;;;0.30;99.90;;;;;;5008657;28;20018;-82
2024/01/20 05:36:02;;;;;;;11.32;4.35;;;0.10;99.90;;;;;;5018055;28;20035;-84
2024/01/20 05:38:28;;;;;;;17.60;8.30;;;0.20;99.90;;;;;;5006833;28;20018;-84
2024/01/20 05:40:54;;;;;;;21.33;8.48;;;0.30;99.90;;;;;;5010190;28;20017;-83
2024/01/20 05:43:19;;;;;;;9.02;7.20;;;0.20;99.90;;;;;;5005126;28;20376;-83
2024/01/20 05:45:45;;;;;;;16.80;5.97;;;0.30;99.90;;;;;;5006171;28;20013;-83
2024/01/20 05:48:11;;;;;;;0.75;0.75;;;0.30;99.90;;;;;;5002708;28;20403;-83
2024/01/20 05:50:37;;;;;;;12.40;5.82;;;0.40;99.90;;;;;;5016187;28;20386;-84
2024/01/20 05:53:03;;;;;;;6.50;4.28;;;0.50;99.90;;;;;;5014807;28;20459;-83
2024/01/20 05:55:28;;;;;;;22.00;8.30;;;0.50;99.90;;;;;;5010494;28;20019;-83
2024/01/20 05:57:54;;;;;;;12.05;5.40;;;0.50;99.90;;;;;;5013166;28;20037;-84
2024/01/20 06:00:21;;;;;;;18.63;8.07;;;0.40;99.90;;;;;;5010829;28;20416;-84
2024/01/20 06:02:48;;;;;;;3.22;2.92;;;0.40;99.90;;;;;;5011146;28;20030;-83
2024/01/20 06:05:15;;;;;;;37.72;6.93;;;0.40;99.90;;;;;;5018102;28;20033;-82
2024/01/20 06:07:41;;;;;;;11.70;7.05;;;0.30;99.90;;;;;;5010167;28;20026;-83
2024/01/20 06:10:07;;;;;;;17.40;9.32;;;0.30;99.90;;;;;;5009748;28;20038;-83
2024/01/20 06:12:34;;;;;;;14.38;6.18;;;0.10;99.90;;;;;;5015156;28;20074;-83
2024/01/20 06:15:00;;;;;;;19.83;7.30;;;0.20;99.90;;;;;;4997318;28;20018;-83
2024/01/20 06:17:26;;;;;;;6.80;4.75;;;0.10;99.90;;;;;;4998117;28;20027;-81
2024/01/20 06:19:53;;;;;;;17.80;6.75;;;0.10;99.90;;;;;;5015086;28;20457;-83
2024/01/20 06:22:19;;;;;;;3.55;3.13;;;0.10;99.90;;;;;;5014462;28;20037;-82
2024/01/20 06:24:44;;;;;;;7.80;3.97;;;0.30;99.90;;;;;;5012635;28;20387;-82
2024/01/20 06:27:10;;;;;;;5.55;4.07;;;0.40;99.90;;;;;;5018842;28;20488;-82
2024/01/20 06:29:43;;;;;;;2.85;2.40;;;0.30;99.90;;;;;;5010383;28;20022;-83
2024/01/20 06:32:08;;;;;;;11.25;5.88;;;0.50;99.90;;;;;;5010599;28;20082;-84
2024/01/20 06:34:34;;;;;;;11.95;5.28;;;0.40;99.90;;;;;;5008412;28;20022;-83
2024/01/20 06:37:00;;;;;;;17.45;7.00;;;0.30;99.90;;;;;;5004214;28;20387;-83
2024/01/20 06:39:26;;;;;;;3.95;1.05;;;0.20;99.90;;;;;;4998383;28;20559;-83
2024/01/20 06:41:51;;;;;;;13.77;7.40;;;0.20;99.90;;;;;;5015966;28;20025;-83
2024/01/20 06:44:18;;;;;;;10.05;4.88;;;0.20;99.90;;;;;;4995973;28;20436;-83
2024/01/20 06:46:44;;;;;;;12.95;5.85;;;0.20;99.90;;;;;;4995519;28;20034;-83
2024/01/20 06:49:10;;;;;;;18.52;9.20;;;0.10;99.90;;;;;;5003263;28;20026;-84
2024/01/20 06:51:36;;;;;;;27.80;8.60;;;0.10;99.90;;;;;;5012786;28;20046;-83
2024/01/20 06:54:02;;;;;;;9.93;7.43;;;-0.10;99.90;;;;;;5011635;28;20026;-83
2024/01/20 06:56:28;;;;;;;14.73;5.97;;;-0.10;99.90;;;;;;5013342;28;20038;-83
2024/01/20 06:58:55;;;;;;;18.52;8.77;;;-0.10;99.90;;;;;;5007892;28;20139;-83
2024/01/20 07:01:22;;;;;;;23.33;8.52;;;-0.10;99.90;;;;;;5005712;28;20034;-82
2024/01/20 07:03:49;;;;;;;16.25;7.05;;;0.00;99.90;;;;;;5000084;28;20378;-80
2024/01/20 07:06:15;;;;;;;18.67;8.43;;;0.00;99.90;;;;;;5004230;28;20030;-82
2024/01/20 07:08:42;;;;;;;19.65;9.05;;;0.00;99.90;;;;;;5008401;28;20443;-82
2024/01/20 07:11:11;;;;;;;13.30;5.78;;;-0.10;99.90;;;;;;4998928;28;20049;-82
2024/01/20 07:13:37;;;;;;;4.00;2.50;;;0.10;99.90;;;;;;5011313;28;20022;-82
2024/01/20 07:16:14;;;;;;;11.50;4.43;;;0.10;99.90;;;;;;5010762;28;20487;-83
2024/01/20 07:18:41;;;;;;;10.85;4.38;;;0.10;99.90;;;;;;4993989;28;20476;-82
2024/01/20 07:21:07;;;;;;;20.52;7.93;;;0.20;99.90;;;;;;4995259;28;20034;-82
2024/01/20 07:23:33;;;;;;;14.77;6.15;;;0.20;99.90;;;;;;5011173;28;20022;-83
2024/01/20 07:25:59;;;;;;;15.63;8.25;;;0.20;99.90;;;;;;5008246;28;20395;-82
2024/01/20 07:28:26;;;;;;;7.38;4.60;;;0.20;99.90;;;;;;4998836;28;20034;-78
2024/01/20 07:30:53;;;;;;;3.22;2.92;;;0.20;99.90;;;;;;5005090;28;20031;-82
2024/01/20 07:33:19;;;;;;;4.30;3.20;;;0.20;99.90;;;;;;5005448;28;20483;-82
2024/01/20 07:35:45;;;;;;;20.50;8.88;;;0.30;99.90;;;;;;5002979;28;20045;-81
2024/01/20 07:38:12;;;;;;;23.10;8.55;;;0.30;99.90;;;;;;5001243;28;20018;-76
2024/01/20 07:40:39;;;;;;;3.30;2.72;;;0.40;99.90;;;;;;5000315;28;20027;-80
2024/01/20 07:43:06;;;;;;;8.40;4.50;;;0.40;99.90;;;;;;5006761;28;20120;-78
2024/01/20 07:45:32;;;;;;;5.35;3.78;;;0.30;99.90;;;;;;5001630;28;20178;-80
2024/01/20 07:48:00;;;;;;;19.73;8.35;;;0.30;99.90;;;;;;4999767;28;20034;-81
2024/01/20 07:50:26;;;;;;;18.75;8.13;;;0.30;99.90;;;;;;5010800;28;20101;-77
2024/01/20 07:52:52;;;;;;;5.93;4.07;;;0.30;99.90;;;;;;5006093;28;20030;-82
2024/01/20 07:55:18;;;;;;;4.40;2.13;;;0.30;99.90;;;;;;5003072;28;20033;-82
2024/01/20 07:57:43;;;;;;;7.05;4.10;;;0.40;99.90;;;;;;5006508;28;20029;-82
2024/01/20 08:00:10;;;;;;;20.95;8.38;;;0.50;99.90;;;;;;5010478;28;20023;-81
2024/01/20 08:02:39;;;;;;;3.25;2.05;;;0.50;99.90;;;;;;5020611;28;20105;-80
2024/01/20 08:05:06;;;;;;;8.10;2.58;;;0.40;99.90;;;;;;5007657;28;20036;-81
2024/01/20 08:07:32;;;;;;;19.27;9.60;;;0.50;99.90;;;;;;5013146;28;20022;-78
2024/01/20 08:09:59;;;;;;;10.73;7.43;;;0.40;99.90;;;;;;5004785;28;20033;-81
2024/01/20 08:12:25;;;;;;;6.70;4.07;;;0.40;99.90;;;;;;5007784;28;20479;-81
2024/01/20 08:14:51;;;;;;;1.90;1.40;;;0.50;99.90;;;;;;5009979;28;20475;-80
2024/01/20 08:17:17;;;;;;;15.75;7.55;;;0.50;99.90;;;;;;5013654;28;20076;-79
2024/01/20 08:19:45;;;;;;;17.73;9.65;;;0.50;99.90;;;;;;5012137;28;20076;-81
2024/01/20 08:22:12;;;;;;;27.48;9.75;;;0.50;99.90;;;;;;5011304;28;20500;-78
2024/01/20 08:24:38;;;;;;;0.57;0.57;;;0.30;99.90;;;;;;5016867;28;20025;-83
2024/01/20 08:27:04;;;;;;;3.50;2.25;;;0.40;99.90;;;;;;5023443;28;20025;-81
2024/01/20 08:29:30;;;;;;;19.63;9.45;;;0.40;99.90;;;;;;5000154;28;20109;-81
2024/01/20 08:31:56;;;;;;;8.20;3.58;;;0.30;99.90;;;;;;5006068;28;20038;-80
2024/01/20 08:34:21;;;;;;;0.43;0.43;;;0.40;99.90;;;;;;5012354;28;20034;-82
2024/01/20 08:36:47;;;;;;;7.10;2.67;;;0.40;99.90;;;;;;5008422;28;20018;-82
2024/01/20 08:39:15;;;;;;;18.58;9.55;;;0.50;99.90;;;;;;5007689;28;20022;-82
2024/01/20 08:41:41;;;;;;;6.47;3.33;;;0.40;99.90;;;;;;5002295;28;20034;-82
2024/01/20 08:44:07;;;;;;;9.15;4.07;;;0.40;99.90;;;;;;5019830;28;20030;-81
2024/01/20 08:46:33;;;;;;;6.18;5.47;;;0.50;99.90;;;;;;5011161;28;20022;-83
2024/01/20 08:48:59;;;;;;;14.88;6.40;;;0.40;99.90;;;;;;5009336;28;20029;-82
2024/01/20 08:51:25;;;;;;;5.10;3.22;;;0.30;99.90;;;;;;5002857;28;20038;-82
2024/01/20 08:53:51;;;;;;;7.95;3.72;;;0.30;99.90;;;;;;5007570;28;20025;-82
2024/01/20 08:56:17;;;;;;;20.13;6.85;;;0.30;99.90;;;;;;5011888;28;20026;-82
2024/01/20 08:58:43;;;;;;;30.58;10.30;;;0.20;99.90;;;;;;5008732;28;20109;-79
2024/01/20 09:01:09;;;;;;;5.32;3.22;;;0.10;99.90;;;;;;5011141;28;20029;-83
2024/01/20 09:03:34;;;;;;;10.65;4.75;;;0.40;99.90;;;;;;5011555;28;20036;-82
2024/01/20 09:06:01;;;;;;;20.25;8.80;;;0.40;99.90;;;;;;5011233;28;20614;-82
2024/01/20 09:08:27;;;;;;;11.82;6.05;;;0.50;99.90;;;;;;4996045;28;20028;-83
2024/01/20 09:10:53;;;;;;;4.53;2.50;;;0.60;99.90;;;;;;5010831;28;20099;-82
2024/01/20 09:13:19;;;;;;;21.08;9.63;;;0.50;99.90;;;;;;5010425;28;20042;-83
2024/01/20 09:15:45;;;;;;;18.73;8.73;;;0.50;99.90;;;;;;5010534;28;20030;-81
2024/01/20 09:18:11;;;;;;;19.38;9.05;;;0.50;99.90;;;;;;5012366;28;20514;-82
2024/01/20 09:20:37;;;;;;;11.52;7.20;;;0.30;99.90;;;;;;5010137;28;20471;-83
2024/01/20 09:23:04;;;;;;;14.10;6.10;;;0.40;99.90;;;;;;5010610;28;20065;-82
2024/01/20 09:25:29;;;;;;;9.35;4.25;;;0.30;99.90;;;;;;5009269;28;20018;-82
2024/01/20 09:27:55;;;;;;;13.35;5.90;;;0.50;99.90;;;;;;5010978;28;20037;-82
2024/01/20 09:30:22;;;;;;;19.38;8.13;;;0.50;99.90;;;;;;5009238;28;20091;-82
2024/01/20 09:32:48;;;;;;;6.00;3.60;;;0.60;99.90;;;;;;5011575;28;20049;-81
2024/01/20 09:35:14;;;;;;;0.63;0.63;;;0.50;99.90;;;;;;5011074;28;20188;-82
2024/01/20 09:37:40;;;;;;;4.18;2.20;;;0.60;99.90;;;;;;5010378;28;20049;-81
2024/01/20 09:40:06;;;;;;;29.10;13.05;;;0.60;99.90;;;;;;5009915;28;20026;-82
2024/01/20 09:42:33;;;;;;;5.60;1.52;;;0.60;99.90;;;;;;5011822;28;20026;-79
2024/01/20 09:44:59;;;;;;;18.65;9.23;;;0.80;99.90;;;;;;5008876;28;20593;-83
2024/01/20 09:47:25;;;;;;;3.35;3.08;;;0.60;99.90;;;;;;5006960;28;20113;-81
2024/01/20 09:49:51;;;;;;;7.05;3.33;;;0.60;99.90;;;;;;5009766;28;20470;-83
2024/01/20 09:52:27;;;;;;;31.38;14.02;;;0.50;99.90;;;;;;5008932;28;20042;-83
2024/01/20 09:55:17;;;;;;;11.63;7.07;;;0.40;99.90;;;;;;5010023;28;20101;-81
2024/01/20 09:57:44;;;;;;;8.85;5.05;;;0.30;99.90;;;;;;5007171;28;20109;-82
2024/01/20 10:00:13;;;;;;;4.00;2.63;;;0.30;99.90;;;;;;5006407;28;20018;-82
2024/01/20 10:02:40;;;;;;;15.48;7.25;;;0.50;99.90;;;;;;5011214;28;20030;-83
2024/01/20 10:05:09;;;;;;;3.17;2.15;;;0.50;99.90;;;;;;5009813;28;20033;-83
2024/01/20 10:07:36;;;;;;;0.63;0.63;;;0.40;99.90;;;;;;5011251;28;20033;-81
2024/01/20 10:10:02;;;;;;;1.40;1.30;;;0.40;99.90;;;;;;5009575;28;20045;-81
2024/01/20 10:12:29;;;;;;;9.93;5.82;;;0.50;99.90;;;;;;5005426;28;20038;-82
2024/01/20 10:14:55;;;;;;;1.98;1.77;;;0.40;99.90;;;;;;5011177;28;20037;-82
2024/01/20 10:17:21;;;;;;;17.85;8.35;;;0.30;99.90;;;;;;5009269;28;20038;-81
2024/01/20 10:19:47;;;;;;;4.20;2.75;;;0.20;99.90;;;;;;5010908;28;20014;-81
2024/01/20 10:22:13;;;;;;;9.50;3.80;;;0.30;99.90;;;;;;5008967;28;20065;-82
2024/01/20 10:24:50;;;;;;;10.70;5.63;;;0.40;99.90;;;;;;5009703;28;20021;-82
2024/01/20 10:27:20;;;;;;;4.55;2.58;;;0.30;99.90;;;;;;5008757;28;20072;-82
2024/01/20 10:29:47;;;;;;;1.73;1.52;;;0.40;99.90;;;;;;5010313;28;20483;-82
2024/01/20 10:32:14;;;;;;;2.42;2.22;;;0.70;99.90;;;;;;5023572;28;20556;-81
2024/01/20 10:34:40;;;;;;;4.68;2.65;;;0.90;99.90;;;;;;5010858;28;20091;-81
2024/01/20 10:37:12;;;;;;;5.57;2.80;;;1.00;99.90;;;;;;5009209;28;20022;-83
2024/01/20 10:39:45;;;;;;;15.07;7.57;;;0.90;99.90;;;;;;5008029;28;20481;-83
2024/01/20 10:42:15;;;;;;;12.13;6.18;;;0.80;99.90;;;;;;5010744;28;20030;-81
2024/01/20 10:44:47;;;;;;;5.85;2.42;;;0.60;99.90;;;;;;5008594;28;20110;-77
2024/01/20 10:47:27;;;;;;;16.65;6.88;;;0.80;99.90;;;;;;5009787;28;20494;-80
2024/01/20 10:49:53;;;;;;;7.40;2.97;;;0.50;99.90;;;;;;5008955;28;20097;-81
2024/01/20 10:52:20;;;;;;;14.50;9.10;;;0.50;99.90;;;;;;5007930;28;20035;-81
2024/01/20 10:54:46;;;;;;;25.80;9.32;;;0.10;99.90;;;;;;5009663;28;20029;-77
2024/01/20 10:57:12;;;;;;;13.77;6.10;;;0.20;99.90;;;;;;5026059;28;20406;-76
2024/01/20 10:59:42;;;;;;;3.85;3.40;;;0.40;99.90;;;;;;5009977;28;20523;-77
2024/01/20 11:02:11;;;;;;;8.88;5.90;;;0.50;99.90;;;;;;5026858;28;20439;-76
2024/01/20 11:04:40;;;;;;;3.72;3.22;;;0.40;99.90;;;;;;5009673;28;20034;-83
2024/01/20 11:07:09;;;;;;;22.92;11.32;;;0.60;99.90;;;;;;5007681;28;20413;-83
2024/01/20 11:09:36;;;;;;;2.10;1.20;;;0.50;99.90;;;;;;5009948;28;20417;-82
2024/01/20 11:12:03;;;;;;;15.25;6.45;;;0.70;99.90;;;;;;5010195;28;20656;-83
2024/01/20 11:14:30;;;;;;;5.00;3.67;;;0.80;99.90;;;;;;5008299;28;20033;-83
2024/01/20 11:16:56;;;;;;;4.55;3.45;;;0.80;99.90;;;;;;5009426;28;20483;-82
2024/01/20 11:19:22;;;;;;;3.97;3.33;;;0.90;99.90;;;;;;5009051;28;20029;-83
2024/01/20 11:21:48;;;;;;;13.07;7.30;;;0.80;99.90;;;;;;5008077;28;20498;-82
2024/01/20 11:24:17;;;;;;;9.43;6.22;;;0.60;99.90;;;;;;5003831;28;20101;-83
2024/01/20 11:26:43;;;;;;;25.52;11.38;;;0.60;99.90;;;;;;5007987;28;20030;-83
2024/01/20 11:29:09;;;;;;;20.33;8.63;;;0.30;99.90;;;;;;5011709;28;20018;-82
2024/01/20 11:31:35;;;;;;;5.30;2.88;;;0.20;99.90;;;;;;5007431;28;20045;-83
2024/01/20 11:34:04;;;;;;;21.02;9.02;;;0.20;99.90;;;;;;5012738;28;20026;-81
2024/01/20 11:36:33;;;;;;;16.02;6.15;;;0.30;99.90;;;;;;5015402;28;20473;-85
2024/01/20 11:39:00;;;;;;;7.22;3.92;;;0.10;99.90;;;;;;5014470;28;20044;-84
2024/01/20 11:41:26;;;;;;;24.13;10.70;;;0.30;99.90;;;;;;5008804;28;20052;-84
2024/01/20 11:43:53;;;;;;;29.27;6.80;;;0.50;99.90;;;;;;5011239;28;20061;-84
2024/01/20 11:46:20;;;;;;;1.52;1.35;;;1.00;99.90;;;;;;5015787;28;20498;-84
2024/01/20 11:48:47;;;;;;;15.43;7.22;;;1.40;99.90;;;;;;5013232;28;20030;-83
2024/01/20 11:51:13;;;;;;;2.70;2.28;;;1.90;99.90;;;;;;5012756;28;20026;-78
2024/01/20 11:53:38;;;;;;;2.80;2.28;;;2.40;99.90;;;;;;5009538;28;20029;-82
2024/01/20 11:56:05;;;;;;;8.63;4.90;;;2.60;99.90;;;;;;5027915;28;20038;-81
2024/01/20 11:58:31;;;;;;;5.35;3.85;;;2.40;99.90;;;;;;5009853;28;20034;-81
2024/01/20 12:00:58;;;;;;;8.60;4.88;;;2.60;99.90;;;;;;5012961;28;20076;-85
2024/01/20 12:03:26;;;;;;;1.38;1.27;;;2.30;99.90;;;;;;5010612;28;20639;-80
2024/01/20 12:05:52;;;;;;;10.32;6.75;;;2.40;99.90;;;;;;5012617;28;20030;-82
2024/01/20 12:08:19;;;;;;;0.32;0.32;;;2.50;99.90;;;;;;5010844;28;20030;-84
2024/01/20 12:10:49;;;;;;;0.75;0.75;;;2.90;99.90;;;;;;5012846;28;20423;-84
2024/01/20 12:13:15;;;;;;;4.95;2.95;;;3.50;99.90;;;;;;5006453;28;20113;-83
2024/01/20 12:15:42;;;;;;;6.32;3.13;;;3.50;99.90;;;;;;5011963;28;20025;-83
2024/01/20 12:18:08;;;;;;;7.97;1.63;;;3.50;99.90;;;;;;5010414;28;20014;-84
2024/01/20 12:20:36;;;;;;;3.58;3.25;;;3.40;99.90;;;;;;5014560;28;20367;-83
2024/01/20 12:23:03;;;;;;;5.50;3.88;;;3.40;99.90;;;;;;5011341;28;20068;-84
2024/01/20 12:25:32;;;;;;;5.65;3.08;;;3.50;99.90;;;;;;5015120;28;20437;-84
2024/01/20 12:27:58;;;;;;;1.88;1.52;;;3.80;99.90;;;;;;5011226;28;20061;-83
2024/01/20 12:30:26;;;;;;;8.20;4.15;;;3.60;99.90;;;;;;5011011;28;20429;-83
2024/01/20 12:32:52;;;;;;;1.65;1.50;;;3.40;99.90;;;;;;5011632;28;20125;-84
2024/01/20 12:35:18;;;;;;;4.30;0.90;;;3.60;99.90;;;;;;5010182;28;20032;-84
2024/01/20 12:37:44;;;;;;;4.75;2.28;;;4.00;99.90;;;;;;5011945;28;20079;-83
2024/01/20 12:40:11;;;;;;;8.63;2.22;;;3.90;99.90;;;;;;5009430;28;20050;-83
2024/01/20 12:42:37;;;;;;;6.97;4.07;;;3.50;99.90;;;;;;5028616;28;20065;-81
2024/01/20 12:45:06;;;;;;;0.85;0.85;;;3.40;99.90;;;;;;5009933;28;20427;-82
2024/01/20 12:47:33;;;;;;;3.47;0.88;;;3.60;99.90;;;;;;5010635;28;20191;-81